sensor_id;sensor_type;location;lat;lon;timestamp;P1;durP1;ratioP1;P2;durP2;ratioP2
66609;SDS011;53468;48.276;14.416;2023-04-16T07:40:05;10.25;;;6.35;;
66609;SDS011;53468;48.276;14.416;2023-04-16T07:46:17;10.02;;;6.10;;
66609;SDS011;53468;48.276;14.416;2023-04-16T07:51:30;10.48;;;6.55;;
66609;SDS011;53468;48.276;14.416;2023-04-16T08:32:47;13.27;;;8.00;;
66609;SDS011;53468;48.276;14.416;2023-04-16T08:38:46;12.63;;;7.57;;
66609;SDS011;53468;48.276;14.416;2023-04-16T08:44:51;12.23;;;8.15;;
66609;SDS011;53468;48.276;14.416;2023-04-16T08:50:32;15.10;;;8.85;;
66609;SDS011;53468;48.276;14.416;2023-04-16T10:21:35;8.82;;;5.82;;
66609;SDS011;53468;48.276;14.416;2023-04-16T10:27:00;11.20;;;6.47;;
66609;SDS011;53468;48.276;14.416;2023-04-16T10:32:13;7.95;;;5.43;;
66609;SDS011;53468;48.276;14.416;2023-04-16T10:37:36;7.88;;;5.40;;
66609;SDS011;53468;48.276;14.416;2023-04-16T10:42:52;9.63;;;5.63;;
66609;SDS011;53468;48.276;14.416;2023-04-16T10:48:26;6.90;;;4.25;;
66609;SDS011;53468;48.276;14.416;2023-04-16T10:55:12;9.45;;;6.25;;
66609;SDS011;53468;48.276;14.416;2023-04-16T11:01:12;6.40;;;4.30;;
66609;SDS011;53468;48.276;14.416;2023-04-16T11:06:32;8.07;;;4.63;;
66609;SDS011;53468;48.276;14.416;2023-04-16T12:36:24;4.37;;;2.77;;
66609;SDS011;53468;48.276;14.416;2023-04-16T12:49:01;6.45;;;4.88;;
66609;SDS011;53468;48.276;14.416;2023-04-16T13:00:19;7.07;;;4.97;;
66609;SDS011;53468;48.276;14.416;2023-04-16T13:24:33;3.75;;;2.70;;
66609;SDS011;53468;48.276;14.416;2023-04-16T13:29:57;2.65;;;1.88;;
66609;SDS011;53468;48.276;14.416;2023-04-16T19:18:35;4.82;;;3.08;;
66609;SDS011;53468;48.276;14.416;2023-04-16T19:24:10;5.28;;;3.22;;
66609;SDS011;53468;48.276;14.416;2023-04-16T20:03:06;7.35;;;4.20;;
66609;SDS011;53468;48.276;14.416;2023-04-16T20:08:19;6.40;;;3.67;;
66609;SDS011;53468;48.276;14.416;2023-04-16T20:13:42;7.47;;;3.72;;
66609;SDS011;53468;48.276;14.416;2023-04-16T20:24:16;9.00;;;4.68;;
66609;SDS011;53468;48.276;14.416;2023-04-16T20:29:35;7.18;;;4.63;;
66609;SDS011;53468;48.276;14.416;2023-04-16T20:35:01;8.07;;;5.13;;
66609;SDS011;53468;48.276;14.416;2023-04-16T20:45:42;10.10;;;4.13;;
66609;SDS011;53468;48.276;14.416;2023-04-16T20:57:06;8.90;;;4.60;;
66609;SDS011;53468;48.276;14.416;2023-04-16T21:02:13;7.28;;;4.53;;
66609;SDS011;53468;48.276;14.416;2023-04-16T21:07:40;7.70;;;4.57;;
66609;SDS011;53468;48.276;14.416;2023-04-16T21:13:08;9.68;;;5.90;;
66609;SDS011;53468;48.276;14.416;2023-04-16T21:18:18;13.88;;;5.78;;
66609;SDS011;53468;48.276;14.416;2023-04-16T21:23:23;9.05;;;5.32;;
66609;SDS011;53468;48.276;14.416;2023-04-16T21:28:39;5.32;;;3.47;;
66609;SDS011;53468;48.276;14.416;2023-04-16T21:34:11;6.10;;;4.28;;
66609;SDS011;53468;48.276;14.416;2023-04-16T21:39:22;6.10;;;3.85;;
66609;SDS011;53468;48.276;14.416;2023-04-16T21:44:40;7.95;;;4.97;;
66609;SDS011;53468;48.276;14.416;2023-04-16T21:49:54;8.57;;;5.18;;
66609;SDS011;53468;48.276;14.416;2023-04-16T21:55:20;7.72;;;5.07;;
66609;SDS011;53468;48.276;14.416;2023-04-16T22:01:03;8.30;;;4.90;;
66609;SDS011;53468;48.276;14.416;2023-04-16T22:06:22;8.90;;;5.65;;
66609;SDS011;53468;48.276;14.416;2023-04-16T22:11:42;7.68;;;5.30;;
66609;SDS011;53468;48.276;14.416;2023-04-16T22:16:56;9.65;;;5.53;;
66609;SDS011;53468;48.276;14.416;2023-04-16T22:22:01;11.05;;;5.97;;
66609;SDS011;53468;48.276;14.416;2023-04-16T22:27:28;8.82;;;6.13;;
66609;SDS011;53468;48.276;14.416;2023-04-16T22:32:45;8.13;;;5.22;;
66609;SDS011;53468;48.276;14.416;2023-04-16T22:37:50;7.53;;;5.22;;
66609;SDS011;53468;48.276;14.416;2023-04-16T22:42:59;8.15;;;5.30;;
66609;SDS011;53468;48.276;14.416;2023-04-16T22:48:13;8.25;;;5.25;;
66609;SDS011;53468;48.276;14.416;2023-04-16T22:53:22;8.00;;;5.27;;
66609;SDS011;53468;48.276;14.416;2023-04-16T22:58:26;9.50;;;5.43;;
66609;SDS011;53468;48.276;14.416;2023-04-16T23:03:31;9.10;;;5.82;;
66609;SDS011;53468;48.276;14.416;2023-04-16T23:08:35;10.27;;;6.10;;
66609;SDS011;53468;48.276;14.416;2023-04-16T23:13:42;9.80;;;5.78;;
66609;SDS011;53468;48.276;14.416;2023-04-16T23:18:49;8.60;;;6.10;;
66609;SDS011;53468;48.276;14.416;2023-04-16T23:23:59;9.30;;;5.82;;
66609;SDS011;53468;48.276;14.416;2023-04-16T23:29:03;11.02;;;5.80;;
66609;SDS011;53468;48.276;14.416;2023-04-16T23:34:12;8.90;;;5.55;;
66609;SDS011;53468;48.276;14.416;2023-04-16T23:39:15;10.13;;;6.18;;
66609;SDS011;53468;48.276;14.416;2023-04-16T23:44:19;11.55;;;6.30;;
66609;SDS011;53468;48.276;14.416;2023-04-16T23:49:26;7.50;;;5.45;;
66609;SDS011;53468;48.276;14.416;2023-04-16T23:54:31;11.48;;;5.85;;
66609;SDS011;53468;48.276;14.416;2023-04-16T23:59:38;11.02;;;6.35;;
